sensor_id;sensor_type;location;lat;lon;timestamp;pressure;altitude;pressure_sealevel;temperature;humidity
29315;BME280;16320;53.954;9.506;2023-03-19T00:01:05;100996.16;;;9.71;100.00
29315;BME280;16320;53.954;9.506;2023-03-19T00:04:10;100998.84;;;9.69;100.00
29315;BME280;16320;53.954;9.506;2023-03-19T00:07:15;100999.66;;;9.51;100.00
29315;BME280;16320;53.954;9.506;2023-03-19T00:10:20;101007.00;;;9.43;100.00
29315;BME280;16320;53.954;9.506;2023-03-19T00:13:24;101001.75;;;9.43;100.00
29315;BME280;16320;53.954;9.506;2023-03-19T00:16:28;100993.25;;;9.38;100.00
29315;BME280;16320;53.954;9.506;2023-03-19T00:19:33;100998.97;;;9.25;100.00
29315;BME280;16320;53.954;9.506;2023-03-19T00:22:38;101002.38;;;9.27;100.00
29315;BME280;16320;53.954;9.506;2023-03-19T00:25:43;101004.22;;;9.25;100.00
29315;BME280;16320;53.954;9.506;2023-03-19T00:28:47;101002.25;;;9.30;100.00
29315;BME280;16320;53.954;9.506;2023-03-19T00:31:52;100988.75;;;9.19;100.00
29315;BME280;16320;53.954;9.506;2023-03-19T00:34:59;100990.00;;;9.10;100.00
29315;BME280;16320;53.954;9.506;2023-03-19T00:38:03;100983.91;;;9.10;100.00
29315;BME280;16320;53.954;9.506;2023-03-19T00:41:08;100986.91;;;9.01;100.00
29315;BME280;16320;53.954;9.506;2023-03-19T00:44:12;100981.84;;;8.96;100.00
29315;BME280;16320;53.954;9.506;2023-03-19T00:47:16;100989.75;;;8.94;100.00
29315;BME280;16320;53.954;9.506;2023-03-19T00:50:21;100994.75;;;9.01;100.00
29315;BME280;16320;53.954;9.506;2023-03-19T00:53:25;101001.84;;;8.98;100.00
29315;BME280;16320;53.954;9.506;2023-03-19T00:56:30;101008.28;;;8.90;100.00
29315;BME280;16320;53.954;9.506;2023-03-19T00:59:34;101010.84;;;8.91;100.00
29315;BME280;16320;53.954;9.506;2023-03-19T01:02:39;101011.09;;;8.85;100.00
29315;BME280;16320;53.954;9.506;2023-03-19T01:05:43;101009.41;;;8.84;100.00
29315;BME280;16320;53.954;9.506;2023-03-19T01:08:50;101012.44;;;8.73;100.00
29315;BME280;16320;53.954;9.506;2023-03-19T01:11:54;101024.13;;;8.65;100.00
29315;BME280;16320;53.954;9.506;2023-03-19T01:14:59;101017.72;;;8.72;100.00
29315;BME280;16320;53.954;9.506;2023-03-19T01:18:04;101016.88;;;8.71;100.00
29315;BME280;16320;53.954;9.506;2023-03-19T01:21:09;101010.09;;;8.66;100.00
29315;BME280;16320;53.954;9.506;2023-03-19T01:24:14;101008.41;;;8.65;100.00
29315;BME280;16320;53.954;9.506;2023-03-19T01:27:20;101013.78;;;8.61;100.00
29315;BME280;16320;53.954;9.506;2023-03-19T01:30:25;101005.25;;;8.56;100.00
29315;BME280;16320;53.954;9.506;2023-03-19T01:33:29;101012.28;;;8.54;100.00
29315;BME280;16320;53.954;9.506;2023-03-19T01:36:34;101014.22;;;8.49;100.00
29315;BME280;16320;53.954;9.506;2023-03-19T01:39:43;101014.91;;;8.54;100.00
29315;BME280;16320;53.954;9.506;2023-03-19T01:43:09;101017.41;;;8.57;100.00
29315;BME280;16320;53.954;9.506;2023-03-19T01:46:33;101012.91;;;8.61;100.00
29315;BME280;16320;53.954;9.506;2023-03-19T01:49:39;101009.09;;;8.70;100.00
29315;BME280;16320;53.954;9.506;2023-03-19T01:52:44;101008.84;;;8.76;100.00
29315;BME280;16320;53.954;9.506;2023-03-19T01:55:49;101005.84;;;8.85;100.00
29315;BME280;16320;53.954;9.506;2023-03-19T01:59:01;101013.88;;;9.03;100.00
29315;BME280;16320;53.954;9.506;2023-03-19T02:02:20;101023.28;;;9.08;100.00
29315;BME280;16320;53.954;9.506;2023-03-19T02:05:27;101014.41;;;9.11;100.00
29315;BME280;16320;53.954;9.506;2023-03-19T02:08:33;101010.25;;;9.07;100.00
29315;BME280;16320;53.954;9.506;2023-03-19T02:11:38;101012.25;;;9.00;100.00
29315;BME280;16320;53.954;9.506;2023-03-19T02:14:43;101014.59;;;9.06;100.00
29315;BME280;16320;53.954;9.506;2023-03-19T02:17:48;101012.84;;;9.07;100.00
29315;BME280;16320;53.954;9.506;2023-03-19T02:21:14;101011.31;;;9.01;100.00
29315;BME280;16320;53.954;9.506;2023-03-19T02:24:37;101016.75;;;8.96;100.00
29315;BME280;16320;53.954;9.506;2023-03-19T02:27:44;101023.41;;;8.83;100.00
29315;BME280;16320;53.954;9.506;2023-03-19T02:30:48;101019.47;;;8.93;100.00
29315;BME280;16320;53.954;9.506;2023-03-19T02:34:04;101017.69;;;8.95;100.00
29315;BME280;16320;53.954;9.506;2023-03-19T02:37:21;101016.38;;;9.06;100.00
29315;BME280;16320;53.954;9.506;2023-03-19T02:40:38;101014.47;;;9.09;100.00
29315;BME280;16320;53.954;9.506;2023-03-19T02:43:44;101021.63;;;9.06;100.00
29315;BME280;16320;53.954;9.506;2023-03-19T02:46:49;101025.22;;;9.03;100.00
29315;BME280;16320;53.954;9.506;2023-03-19T02:49:54;101019.72;;;9.09;100.00
29315;BME280;16320;53.954;9.506;2023-03-19T02:52:58;101020.31;;;9.16;100.00
29315;BME280;16320;53.954;9.506;2023-03-19T02:56:04;101015.34;;;9.10;100.00
29315;BME280;16320;53.954;9.506;2023-03-19T02:59:09;101012.34;;;9.19;100.00
29315;BME280;16320;53.954;9.506;2023-03-19T03:02:13;101008.69;;;9.23;100.00
29315;BME280;16320;53.954;9.506;2023-03-19T03:05:18;101019.81;;;9.28;100.00
29315;BME280;16320;53.954;9.506;2023-03-19T03:08:24;101009.59;;;9.22;100.00
29315;BME280;16320;53.954;9.506;2023-03-19T03:11:33;101016.50;;;9.25;100.00
29315;BME280;16320;53.954;9.506;2023-03-19T03:14:38;101016.56;;;9.23;100.00
29315;BME280;16320;53.954;9.506;2023-03-19T03:17:45;101027.28;;;9.17;100.00
29315;BME280;16320;53.954;9.506;2023-03-19T03:20:50;101025.84;;;9.10;100.00
29315;BME280;16320;53.954;9.506;2023-03-19T03:23:57;101029.72;;;9.00;100.00
29315;BME280;16320;53.954;9.506;2023-03-19T03:27:02;101026.31;;;8.97;100.00
29315;BME280;16320;53.954;9.506;2023-03-19T03:30:08;101031.38;;;9.02;100.00
29315;BME280;16320;53.954;9.506;2023-03-19T03:33:14;101023.34;;;9.07;100.00
29315;BME280;16320;53.954;9.506;2023-03-19T03:36:18;101022.41;;;9.08;100.00
29315;BME280;16320;53.954;9.506;2023-03-19T03:39:22;101013.41;;;9.15;100.00
29315;BME280;16320;53.954;9.506;2023-03-19T03:42:27;101017.63;;;9.18;100.00
29315;BME280;16320;53.954;9.506;2023-03-19T03:45:33;101019.59;;;9.12;100.00
29315;BME280;16320;53.954;9.506;2023-03-19T03:48:39;101029.13;;;9.15;100.00
29315;BME280;16320;53.954;9.506;2023-03-19T03:51:44;101041.41;;;9.13;100.00
29315;BME280;16320;53.954;9.506;2023-03-19T03:54:49;101031.63;;;9.18;100.00
29315;BME280;16320;53.954;9.506;2023-03-19T03:57:53;101026.16;;;9.23;100.00
29315;BME280;16320;53.954;9.506;2023-03-19T04:00:57;101024.53;;;9.20;100.00
29315;BME280;16320;53.954;9.506;2023-03-19T04:04:03;101022.75;;;9.21;100.00
29315;BME280;16320;53.954;9.506;2023-03-19T04:07:12;101021.13;;;9.18;100.00
29315;BME280;16320;53.954;9.506;2023-03-19T04:10:21;101017.50;;;9.21;100.00
29315;BME280;16320;53.954;9.506;2023-03-19T04:13:27;101025.44;;;9.19;100.00
29315;BME280;16320;53.954;9.506;2023-03-19T04:16:34;101014.34;;;9.12;100.00
29315;BME280;16320;53.954;9.506;2023-03-19T04:19:40;101009.84;;;9.16;100.00
29315;BME280;16320;53.954;9.506;2023-03-19T04:22:47;101014.84;;;9.22;100.00
29315;BME280;16320;53.954;9.506;2023-03-19T04:26:02;101009.41;;;9.27;100.00
29315;BME280;16320;53.954;9.506;2023-03-19T04:29:07;101011.66;;;9.36;100.00
29315;BME280;16320;53.954;9.506;2023-03-19T04:32:13;101007.13;;;9.40;100.00
29315;BME280;16320;53.954;9.506;2023-03-19T04:35:19;101005.53;;;9.35;100.00
29315;BME280;16320;53.954;9.506;2023-03-19T04:38:25;101002.91;;;9.35;100.00
29315;BME280;16320;53.954;9.506;2023-03-19T04:41:31;100995.84;;;9.38;100.00
29315;BME280;16320;53.954;9.506;2023-03-19T04:44:37;100998.13;;;9.45;100.00
29315;BME280;16320;53.954;9.506;2023-03-19T04:47:45;101000.03;;;9.42;100.00
29315;BME280;16320;53.954;9.506;2023-03-19T04:51:00;101007.00;;;9.43;100.00
29315;BME280;16320;53.954;9.506;2023-03-19T04:54:15;101016.78;;;9.39;100.00
29315;BME280;16320;53.954;9.506;2023-03-19T04:57:34;101018.53;;;9.39;100.00
29315;BME280;16320;53.954;9.506;2023-03-19T05:00:58;101016.50;;;9.45;100.00
29315;BME280;16320;53.954;9.506;2023-03-19T05:04:39;101017.88;;;9.33;100.00
29315;BME280;16320;53.954;9.506;2023-03-19T05:08:00;101018.56;;;9.37;100.00
29315;BME280;16320;53.954;9.506;2023-03-19T05:11:29;101025.19;;;9.25;100.00
29315;BME280;16320;53.954;9.506;2023-03-19T05:14:49;101018.25;;;9.24;100.00
29315;BME280;16320;53.954;9.506;2023-03-19T05:18:17;101023.47;;;9.24;100.00
29315;BME280;16320;53.954;9.506;2023-03-19T05:21:44;101032.28;;;9.23;100.00
29315;BME280;16320;53.954;9.506;2023-03-19T05:25:03;101044.44;;;9.24;100.00
29315;BME280;16320;53.954;9.506;2023-03-19T05:28:36;101042.88;;;9.20;100.00
29315;BME280;16320;53.954;9.506;2023-03-19T05:31:57;101039.53;;;9.16;100.00
29315;BME280;16320;53.954;9.506;2023-03-19T05:35:33;101029.00;;;9.18;100.00
29315;BME280;16320;53.954;9.506;2023-03-19T05:39:04;101029.25;;;9.12;100.00
29315;BME280;16320;53.954;9.506;2023-03-19T05:42:49;101039.84;;;9.09;100.00
29315;BME280;16320;53.954;9.506;2023-03-19T05:46:16;101038.13;;;9.08;100.00
29315;BME280;16320;53.954;9.506;2023-03-19T05:49:59;101044.31;;;9.07;100.00
29315;BME280;16320;53.954;9.506;2023-03-19T05:53:47;101050.44;;;9.06;100.00
29315;BME280;16320;53.954;9.506;2023-03-19T05:57:14;101044.41;;;9.04;100.00
29315;BME280;16320;53.954;9.506;2023-03-19T06:01:01;101047.03;;;9.04;100.00
29315;BME280;16320;53.954;9.506;2023-03-19T06:04:44;101044.38;;;9.05;100.00
29315;BME280;16320;53.954;9.506;2023-03-19T06:08:00;101044.25;;;9.08;100.00
29315;BME280;16320;53.954;9.506;2023-03-19T06:11:23;101046.66;;;9.13;100.00
29315;BME280;16320;53.954;9.506;2023-03-19T06:15:03;101050.09;;;9.15;100.00
29315;BME280;16320;53.954;9.506;2023-03-19T06:18:59;101050.09;;;9.15;100.00
29315;BME280;16320;53.954;9.506;2023-03-19T06:22:38;101054.16;;;9.22;100.00
29315;BME280;16320;53.954;9.506;2023-03-19T06:29:37;101052.84;;;9.32;100.00
29315;BME280;16320;53.954;9.506;2023-03-19T06:32:45;101052.59;;;9.39;100.00
29315;BME280;16320;53.954;9.506;2023-03-19T06:35:53;101060.34;;;9.42;100.00
29315;BME280;16320;53.954;9.506;2023-03-19T06:39:02;101067.72;;;9.54;100.00
29315;BME280;16320;53.954;9.506;2023-03-19T06:42:09;101062.47;;;9.54;100.00
29315;BME280;16320;53.954;9.506;2023-03-19T06:45:16;101062.22;;;9.60;100.00
29315;BME280;16320;53.954;9.506;2023-03-19T06:48:28;101064.75;;;9.62;100.00
29315;BME280;16320;53.954;9.506;2023-03-19T06:51:35;101060.38;;;9.62;100.00
29315;BME280;16320;53.954;9.506;2023-03-19T06:54:42;101061.81;;;9.69;100.00
29315;BME280;16320;53.954;9.506;2023-03-19T06:57:50;101072.28;;;9.69;100.00
29315;BME280;16320;53.954;9.506;2023-03-19T07:00:59;101078.59;;;9.65;100.00
29315;BME280;16320;53.954;9.506;2023-03-19T07:04:06;101073.22;;;9.68;100.00
29315;BME280;16320;53.954;9.506;2023-03-19T07:07:13;101075.84;;;9.68;100.00
29315;BME280;16320;53.954;9.506;2023-03-19T07:10:24;101076.56;;;9.72;100.00
29315;BME280;16320;53.954;9.506;2023-03-19T07:13:30;101085.94;;;9.78;100.00
29315;BME280;16320;53.954;9.506;2023-03-19T07:16:38;101087.66;;;9.79;100.00
29315;BME280;16320;53.954;9.506;2023-03-19T07:19:48;101079.78;;;9.79;100.00
29315;BME280;16320;53.954;9.506;2023-03-19T07:22:56;101077.03;;;9.82;100.00
29315;BME280;16320;53.954;9.506;2023-03-19T07:26:09;101085.69;;;9.84;100.00
29315;BME280;16320;53.954;9.506;2023-03-19T07:29:17;101086.47;;;9.86;100.00
29315;BME280;16320;53.954;9.506;2023-03-19T07:32:25;101086.19;;;9.92;100.00
29315;BME280;16320;53.954;9.506;2023-03-19T07:35:32;101082.47;;;9.98;100.00
29315;BME280;16320;53.954;9.506;2023-03-19T07:38:39;101083.75;;;10.08;100.00
29315;BME280;16320;53.954;9.506;2023-03-19T07:41:47;101086.31;;;10.10;100.00
29315;BME280;16320;53.954;9.506;2023-03-19T07:44:55;101082.72;;;10.12;100.00
29315;BME280;16320;53.954;9.506;2023-03-19T07:48:35;101081.91;;;10.10;100.00
29315;BME280;16320;53.954;9.506;2023-03-19T07:51:44;101080.16;;;10.11;100.00
29315;BME280;16320;53.954;9.506;2023-03-19T07:54:55;101078.38;;;10.11;100.00
29315;BME280;16320;53.954;9.506;2023-03-19T07:58:02;101080.09;;;10.12;100.00
29315;BME280;16320;53.954;9.506;2023-03-19T08:01:13;101080.81;;;10.16;100.00
29315;BME280;16320;53.954;9.506;2023-03-19T08:04:25;101086.19;;;10.13;100.00
29315;BME280;16320;53.954;9.506;2023-03-19T08:08:41;101084.47;;;10.12;100.00
29315;BME280;16320;53.954;9.506;2023-03-19T08:12:30;101079.09;;;10.15;100.00
29315;BME280;16320;53.954;9.506;2023-03-19T08:16:29;101078.44;;;10.30;100.00
29315;BME280;16320;53.954;9.506;2023-03-19T08:21:00;101079.28;;;10.31;100.00
29315;BME280;16320;53.954;9.506;2023-03-19T08:25:11;101089.06;;;10.27;100.00
29315;BME280;16320;53.954;9.506;2023-03-19T08:29:32;101086.63;;;10.22;100.00
29315;BME280;16320;53.954;9.506;2023-03-19T09:30:05;101076.88;;;12.42;100.00
